sensor_id;sensor_type;location;lat;lon;timestamp;P1;durP1;ratioP1;P2;durP2;ratioP2
21192;SDS011;10754;51.106;7.164;2022-07-24T00:01:31;3.45;;;3.00;;
21192;SDS011;10754;51.106;7.164;2022-07-24T00:03:57;3.10;;;2.85;;
21192;SDS011;10754;51.106;7.164;2022-07-24T00:06:23;3.45;;;3.15;;
21192;SDS011;10754;51.106;7.164;2022-07-24T00:08:48;5.82;;;3.22;;
21192;SDS011;10754;51.106;7.164;2022-07-24T00:11:15;3.00;;;2.70;;
21192;SDS011;10754;51.106;7.164;2022-07-24T00:13:41;4.50;;;2.85;;
21192;SDS011;10754;51.106;7.164;2022-07-24T00:16:07;3.20;;;2.80;;
21192;SDS011;10754;51.106;7.164;2022-07-24T00:18:33;4.93;;;2.78;;
21192;SDS011;10754;51.106;7.164;2022-07-24T00:20:59;3.85;;;3.35;;
21192;SDS011;10754;51.106;7.164;2022-07-24T00:23:24;3.25;;;2.67;;
21192;SDS011;10754;51.106;7.164;2022-07-24T00:25:51;3.28;;;2.72;;
21192;SDS011;10754;51.106;7.164;2022-07-24T00:28:17;4.00;;;3.10;;
21192;SDS011;10754;51.106;7.164;2022-07-24T00:30:43;6.47;;;3.28;;
21192;SDS011;10754;51.106;7.164;2022-07-24T00:33:09;4.20;;;3.10;;
21192;SDS011;10754;51.106;7.164;2022-07-24T00:35:34;4.28;;;3.15;;
21192;SDS011;10754;51.106;7.164;2022-07-24T00:38:00;3.17;;;2.90;;
21192;SDS011;10754;51.106;7.164;2022-07-24T00:40:26;3.20;;;2.85;;
21192;SDS011;10754;51.106;7.164;2022-07-24T00:42:52;3.33;;;2.88;;
21192;SDS011;10754;51.106;7.164;2022-07-24T00:45:18;3.15;;;2.80;;
21192;SDS011;10754;51.106;7.164;2022-07-24T00:47:44;3.35;;;3.00;;
21192;SDS011;10754;51.106;7.164;2022-07-24T00:50:10;3.33;;;2.90;;
21192;SDS011;10754;51.106;7.164;2022-07-24T00:52:36;2.95;;;2.75;;
21192;SDS011;10754;51.106;7.164;2022-07-24T00:55:02;3.60;;;2.90;;
21192;SDS011;10754;51.106;7.164;2022-07-24T00:57:28;3.13;;;2.72;;
21192;SDS011;10754;51.106;7.164;2022-07-24T00:59:54;4.38;;;2.55;;
21192;SDS011;10754;51.106;7.164;2022-07-24T01:02:20;3.78;;;2.70;;
21192;SDS011;10754;51.106;7.164;2022-07-24T01:04:45;3.55;;;2.58;;
21192;SDS011;10754;51.106;7.164;2022-07-24T01:07:12;5.68;;;3.25;;
21192;SDS011;10754;51.106;7.164;2022-07-24T01:09:38;4.45;;;2.55;;
21192;SDS011;10754;51.106;7.164;2022-07-24T01:12:04;7.05;;;3.33;;
21192;SDS011;10754;51.106;7.164;2022-07-24T01:14:32;3.15;;;2.85;;
21192;SDS011;10754;51.106;7.164;2022-07-24T01:16:58;2.97;;;2.78;;
21192;SDS011;10754;51.106;7.164;2022-07-24T01:19:25;4.47;;;2.92;;
21192;SDS011;10754;51.106;7.164;2022-07-24T01:21:51;2.85;;;2.50;;
21192;SDS011;10754;51.106;7.164;2022-07-24T01:24:19;3.33;;;2.90;;
21192;SDS011;10754;51.106;7.164;2022-07-24T01:26:45;3.85;;;2.75;;
21192;SDS011;10754;51.106;7.164;2022-07-24T01:29:11;3.40;;;2.90;;
21192;SDS011;10754;51.106;7.164;2022-07-24T01:31:37;3.30;;;2.80;;
21192;SDS011;10754;51.106;7.164;2022-07-24T01:34:03;3.38;;;3.13;;
21192;SDS011;10754;51.106;7.164;2022-07-24T01:36:29;4.22;;;3.10;;
21192;SDS011;10754;51.106;7.164;2022-07-24T01:38:55;3.63;;;3.00;;
21192;SDS011;10754;51.106;7.164;2022-07-24T01:41:20;3.10;;;2.90;;
21192;SDS011;10754;51.106;7.164;2022-07-24T01:43:46;3.38;;;3.05;;
21192;SDS011;10754;51.106;7.164;2022-07-24T01:46:12;2.80;;;2.58;;
21192;SDS011;10754;51.106;7.164;2022-07-24T01:48:38;2.92;;;2.60;;
21192;SDS011;10754;51.106;7.164;2022-07-24T01:51:05;7.25;;;3.55;;
21192;SDS011;10754;51.106;7.164;2022-07-24T01:53:30;3.95;;;3.17;;
21192;SDS011;10754;51.106;7.164;2022-07-24T01:55:56;7.15;;;3.20;;
21192;SDS011;10754;51.106;7.164;2022-07-24T01:58:21;3.50;;;3.20;;
21192;SDS011;10754;51.106;7.164;2022-07-24T02:00:47;4.80;;;2.85;;
21192;SDS011;10754;51.106;7.164;2022-07-24T02:03:13;3.28;;;2.78;;
21192;SDS011;10754;51.106;7.164;2022-07-24T02:05:38;5.07;;;3.20;;
21192;SDS011;10754;51.106;7.164;2022-07-24T02:08:04;3.45;;;2.95;;
21192;SDS011;10754;51.106;7.164;2022-07-24T02:10:30;3.15;;;2.85;;
21192;SDS011;10754;51.106;7.164;2022-07-24T02:12:56;3.08;;;2.78;;
21192;SDS011;10754;51.106;7.164;2022-07-24T02:15:22;4.18;;;3.45;;
21192;SDS011;10754;51.106;7.164;2022-07-24T02:17:49;3.95;;;2.83;;
21192;SDS011;10754;51.106;7.164;2022-07-24T02:20:15;2.90;;;2.55;;
21192;SDS011;10754;51.106;7.164;2022-07-24T02:22:41;3.50;;;3.17;;
21192;SDS011;10754;51.106;7.164;2022-07-24T02:25:07;3.58;;;3.10;;
21192;SDS011;10754;51.106;7.164;2022-07-24T02:27:33;9.70;;;4.00;;
21192;SDS011;10754;51.106;7.164;2022-07-24T02:29:59;4.05;;;2.95;;
21192;SDS011;10754;51.106;7.164;2022-07-24T02:32:24;3.30;;;2.88;;
21192;SDS011;10754;51.106;7.164;2022-07-24T02:34:50;2.92;;;2.70;;
21192;SDS011;10754;51.106;7.164;2022-07-24T02:37:16;3.30;;;2.78;;
21192;SDS011;10754;51.106;7.164;2022-07-24T02:39:42;4.22;;;3.13;;
21192;SDS011;10754;51.106;7.164;2022-07-24T02:42:08;4.22;;;2.92;;
21192;SDS011;10754;51.106;7.164;2022-07-24T02:44:33;3.20;;;2.67;;
21192;SDS011;10754;51.106;7.164;2022-07-24T02:46:59;4.30;;;2.95;;
21192;SDS011;10754;51.106;7.164;2022-07-24T02:49:24;3.00;;;2.70;;
21192;SDS011;10754;51.106;7.164;2022-07-24T02:51:50;4.35;;;2.58;;
21192;SDS011;10754;51.106;7.164;2022-07-24T02:54:15;3.53;;;3.00;;
21192;SDS011;10754;51.106;7.164;2022-07-24T02:56:41;4.18;;;2.80;;
21192;SDS011;10754;51.106;7.164;2022-07-24T02:59:06;3.28;;;2.97;;
21192;SDS011;10754;51.106;7.164;2022-07-24T03:01:32;2.78;;;2.58;;
21192;SDS011;10754;51.106;7.164;2022-07-24T03:03:57;3.42;;;3.00;;
21192;SDS011;10754;51.106;7.164;2022-07-24T03:06:23;3.78;;;2.83;;
21192;SDS011;10754;51.106;7.164;2022-07-24T03:08:48;4.25;;;2.97;;
21192;SDS011;10754;51.106;7.164;2022-07-24T03:11:14;2.78;;;2.58;;
21192;SDS011;10754;51.106;7.164;2022-07-24T03:13:40;4.90;;;2.90;;
21192;SDS011;10754;51.106;7.164;2022-07-24T03:16:05;3.05;;;2.72;;
21192;SDS011;10754;51.106;7.164;2022-07-24T03:18:31;2.92;;;2.60;;
21192;SDS011;10754;51.106;7.164;2022-07-24T03:20:56;3.42;;;2.88;;
21192;SDS011;10754;51.106;7.164;2022-07-24T03:23:22;3.97;;;2.92;;
21192;SDS011;10754;51.106;7.164;2022-07-24T03:25:47;3.35;;;3.05;;
21192;SDS011;10754;51.106;7.164;2022-07-24T03:28:13;4.30;;;3.60;;
21192;SDS011;10754;51.106;7.164;2022-07-24T03:30:39;3.53;;;3.13;;
21192;SDS011;10754;51.106;7.164;2022-07-24T03:33:05;3.20;;;2.85;;
21192;SDS011;10754;51.106;7.164;2022-07-24T03:35:30;3.53;;;2.85;;
21192;SDS011;10754;51.106;7.164;2022-07-24T03:37:56;5.40;;;3.30;;
21192;SDS011;10754;51.106;7.164;2022-07-24T03:40:22;3.28;;;2.78;;
21192;SDS011;10754;51.106;7.164;2022-07-24T03:42:48;5.80;;;2.85;;
21192;SDS011;10754;51.106;7.164;2022-07-24T03:45:14;3.63;;;2.83;;
21192;SDS011;10754;51.106;7.164;2022-07-24T03:47:39;4.20;;;2.92;;
21192;SDS011;10754;51.106;7.164;2022-07-24T03:50:05;6.40;;;3.03;;
21192;SDS011;10754;51.106;7.164;2022-07-24T03:52:31;3.30;;;3.00;;
21192;SDS011;10754;51.106;7.164;2022-07-24T03:54:56;4.07;;;3.00;;
21192;SDS011;10754;51.106;7.164;2022-07-24T03:57:22;3.30;;;3.00;;
21192;SDS011;10754;51.106;7.164;2022-07-24T03:59:48;3.60;;;3.03;;
21192;SDS011;10754;51.106;7.164;2022-07-24T04:02:14;4.22;;;3.20;;
21192;SDS011;10754;51.106;7.164;2022-07-24T04:04:39;3.13;;;2.72;;
21192;SDS011;10754;51.106;7.164;2022-07-24T04:07:05;3.30;;;2.97;;
21192;SDS011;10754;51.106;7.164;2022-07-24T04:09:31;4.38;;;3.30;;
21192;SDS011;10754;51.106;7.164;2022-07-24T04:11:56;3.63;;;3.33;;
21192;SDS011;10754;51.106;7.164;2022-07-24T04:14:22;4.18;;;3.20;;
21192;SDS011;10754;51.106;7.164;2022-07-24T04:16:48;3.38;;;3.08;;
21192;SDS011;10754;51.106;7.164;2022-07-24T04:19:13;3.83;;;3.10;;
21192;SDS011;10754;51.106;7.164;2022-07-24T04:21:39;2.85;;;2.65;;
21192;SDS011;10754;51.106;7.164;2022-07-24T04:24:05;4.53;;;3.00;;
21192;SDS011;10754;51.106;7.164;2022-07-24T04:26:31;2.83;;;2.60;;
21192;SDS011;10754;51.106;7.164;2022-07-24T04:28:57;3.05;;;2.75;;
21192;SDS011;10754;51.106;7.164;2022-07-24T04:31:23;3.50;;;3.20;;
21192;SDS011;10754;51.106;7.164;2022-07-24T04:33:48;2.92;;;2.70;;
21192;SDS011;10754;51.106;7.164;2022-07-24T04:36:14;3.45;;;3.15;;
21192;SDS011;10754;51.106;7.164;2022-07-24T04:38:39;3.88;;;3.20;;
21192;SDS011;10754;51.106;7.164;2022-07-24T04:41:05;3.45;;;2.50;;
21192;SDS011;10754;51.106;7.164;2022-07-24T04:43:31;2.88;;;2.67;;
21192;SDS011;10754;51.106;7.164;2022-07-24T04:45:57;3.95;;;2.90;;
21192;SDS011;10754;51.106;7.164;2022-07-24T04:48:22;3.15;;;2.95;;
21192;SDS011;10754;51.106;7.164;2022-07-24T04:50:50;3.13;;;2.83;;
21192;SDS011;10754;51.106;7.164;2022-07-24T04:53:16;3.25;;;2.97;;
21192;SDS011;10754;51.106;7.164;2022-07-24T04:55:41;3.47;;;3.17;;
21192;SDS011;10754;51.106;7.164;2022-07-24T04:58:07;3.88;;;2.88;;
21192;SDS011;10754;51.106;7.164;2022-07-24T05:00:32;3.22;;;2.90;;
21192;SDS011;10754;51.106;7.164;2022-07-24T05:02:58;4.35;;;2.88;;
21192;SDS011;10754;51.106;7.164;2022-07-24T05:05:23;3.72;;;2.95;;
21192;SDS011;10754;51.106;7.164;2022-07-24T05:07:49;2.90;;;2.70;;
21192;SDS011;10754;51.106;7.164;2022-07-24T05:10:14;2.97;;;2.70;;
21192;SDS011;10754;51.106;7.164;2022-07-24T05:12:40;3.33;;;3.03;;
21192;SDS011;10754;51.106;7.164;2022-07-24T05:15:06;3.97;;;3.05;;
21192;SDS011;10754;51.106;7.164;2022-07-24T05:17:33;3.20;;;2.90;;
21192;SDS011;10754;51.106;7.164;2022-07-24T05:19:59;3.20;;;2.90;;
21192;SDS011;10754;51.106;7.164;2022-07-24T05:22:25;4.43;;;3.10;;
21192;SDS011;10754;51.106;7.164;2022-07-24T05:24:50;3.40;;;3.10;;
21192;SDS011;10754;51.106;7.164;2022-07-24T05:27:16;3.65;;;2.80;;
21192;SDS011;10754;51.106;7.164;2022-07-24T05:29:41;3.35;;;2.90;;
21192;SDS011;10754;51.106;7.164;2022-07-24T05:32:07;3.22;;;2.88;;
21192;SDS011;10754;51.106;7.164;2022-07-24T05:34:33;8.63;;;2.92;;
21192;SDS011;10754;51.106;7.164;2022-07-24T05:36:58;4.88;;;2.92;;
21192;SDS011;10754;51.106;7.164;2022-07-24T05:39:24;3.35;;;2.83;;
21192;SDS011;10754;51.106;7.164;2022-07-24T05:41:49;3.13;;;2.83;;
21192;SDS011;10754;51.106;7.164;2022-07-24T05:44:15;3.38;;;2.55;;
21192;SDS011;10754;51.106;7.164;2022-07-24T05:46:40;3.17;;;2.88;;
21192;SDS011;10754;51.106;7.164;2022-07-24T05:49:06;2.70;;;2.47;;
21192;SDS011;10754;51.106;7.164;2022-07-24T05:51:32;3.15;;;2.60;;
21192;SDS011;10754;51.106;7.164;2022-07-24T05:53:57;3.95;;;3.03;;
21192;SDS011;10754;51.106;7.164;2022-07-24T05:56:23;4.57;;;2.92;;
21192;SDS011;10754;51.106;7.164;2022-07-24T05:58:48;3.38;;;2.55;;
21192;SDS011;10754;51.106;7.164;2022-07-24T06:01:14;5.13;;;2.38;;
21192;SDS011;10754;51.106;7.164;2022-07-24T06:03:39;2.60;;;2.40;;
21192;SDS011;10754;51.106;7.164;2022-07-24T06:06:05;4.97;;;2.55;;
21192;SDS011;10754;51.106;7.164;2022-07-24T06:08:31;5.05;;;2.80;;
21192;SDS011;10754;51.106;7.164;2022-07-24T06:10:56;2.75;;;2.47;;
21192;SDS011;10754;51.106;7.164;2022-07-24T06:13:22;2.53;;;2.30;;
21192;SDS011;10754;51.106;7.164;2022-07-24T06:15:48;3.63;;;2.45;;
21192;SDS011;10754;51.106;7.164;2022-07-24T06:18:13;2.90;;;2.40;;
21192;SDS011;10754;51.106;7.164;2022-07-24T06:20:39;2.80;;;2.60;;
21192;SDS011;10754;51.106;7.164;2022-07-24T06:23:04;3.45;;;2.58;;
21192;SDS011;10754;51.106;7.164;2022-07-24T06:25:30;3.85;;;2.40;;
21192;SDS011;10754;51.106;7.164;2022-07-24T06:27:56;3.40;;;2.40;;
21192;SDS011;10754;51.106;7.164;2022-07-24T06:30:26;3.05;;;2.75;;
21192;SDS011;10754;51.106;7.164;2022-07-24T06:32:53;2.60;;;2.40;;
21192;SDS011;10754;51.106;7.164;2022-07-24T06:35:20;9.93;;;4.10;;
21192;SDS011;10754;51.106;7.164;2022-07-24T06:37:46;5.78;;;3.50;;
21192;SDS011;10754;51.106;7.164;2022-07-24T06:40:12;8.82;;;4.63;;
21192;SDS011;10754;51.106;7.164;2022-07-24T06:42:38;6.65;;;2.72;;
21192;SDS011;10754;51.106;7.164;2022-07-24T06:45:04;2.75;;;2.53;;
21192;SDS011;10754;51.106;7.164;2022-07-24T06:47:30;3.17;;;2.20;;
21192;SDS011;10754;51.106;7.164;2022-07-24T06:49:56;5.38;;;3.20;;
21192;SDS011;10754;51.106;7.164;2022-07-24T06:52:22;7.95;;;3.47;;
21192;SDS011;10754;51.106;7.164;2022-07-24T06:54:48;4.07;;;3.00;;
21192;SDS011;10754;51.106;7.164;2022-07-24T06:57:14;3.78;;;2.58;;
21192;SDS011;10754;51.106;7.164;2022-07-24T06:59:40;4.25;;;2.75;;
21192;SDS011;10754;51.106;7.164;2022-07-24T07:02:05;5.25;;;3.53;;
21192;SDS011;10754;51.106;7.164;2022-07-24T07:04:31;2.55;;;2.35;;
21192;SDS011;10754;51.106;7.164;2022-07-24T07:06:57;5.35;;;3.03;;
21192;SDS011;10754;51.106;7.164;2022-07-24T07:09:22;3.60;;;2.67;;
21192;SDS011;10754;51.106;7.164;2022-07-24T07:11:48;4.57;;;2.75;;
21192;SDS011;10754;51.106;7.164;2022-07-24T07:14:13;4.88;;;2.95;;
21192;SDS011;10754;51.106;7.164;2022-07-24T07:16:39;5.50;;;2.80;;
21192;SDS011;10754;51.106;7.164;2022-07-24T07:19:04;2.80;;;2.60;;
21192;SDS011;10754;51.106;7.164;2022-07-24T07:21:31;4.10;;;2.85;;
21192;SDS011;10754;51.106;7.164;2022-07-24T07:23:56;3.58;;;2.85;;
21192;SDS011;10754;51.106;7.164;2022-07-24T07:26:22;3.78;;;2.90;;
21192;SDS011;10754;51.106;7.164;2022-07-24T07:28:47;3.50;;;2.53;;
21192;SDS011;10754;51.106;7.164;2022-07-24T07:31:13;3.83;;;2.63;;
21192;SDS011;10754;51.106;7.164;2022-07-24T07:33:38;3.13;;;2.83;;
21192;SDS011;10754;51.106;7.164;2022-07-24T07:36:04;4.60;;;2.78;;
21192;SDS011;10754;51.106;7.164;2022-07-24T07:38:29;3.22;;;2.50;;
21192;SDS011;10754;51.106;7.164;2022-07-24T07:40:55;3.85;;;3.08;;
21192;SDS011;10754;51.106;7.164;2022-07-24T07:43:20;3.58;;;2.65;;
21192;SDS011;10754;51.106;7.164;2022-07-24T07:45:46;3.53;;;2.85;;
21192;SDS011;10754;51.106;7.164;2022-07-24T07:48:12;3.33;;;2.75;;
21192;SDS011;10754;51.106;7.164;2022-07-24T07:50:37;2.78;;;2.58;;
21192;SDS011;10754;51.106;7.164;2022-07-24T07:53:03;3.15;;;2.80;;
21192;SDS011;10754;51.106;7.164;2022-07-24T07:55:28;3.08;;;2.80;;
21192;SDS011;10754;51.106;7.164;2022-07-24T07:57:54;3.55;;;2.70;;
21192;SDS011;10754;51.106;7.164;2022-07-24T08:00:19;3.03;;;2.83;;
21192;SDS011;10754;51.106;7.164;2022-07-24T08:02:45;2.85;;;2.65;;
21192;SDS011;10754;51.106;7.164;2022-07-24T08:05:11;4.13;;;2.75;;
21192;SDS011;10754;51.106;7.164;2022-07-24T08:07:36;3.22;;;2.92;;
21192;SDS011;10754;51.106;7.164;2022-07-24T08:10:03;3.83;;;2.72;;
21192;SDS011;10754;51.106;7.164;2022-07-24T08:12:29;3.35;;;3.05;;
21192;SDS011;10754;51.106;7.164;2022-07-24T08:14:55;4.20;;;3.05;;
21192;SDS011;10754;51.106;7.164;2022-07-24T08:17:20;3.58;;;2.92;;
21192;SDS011;10754;51.106;7.164;2022-07-24T08:19:46;3.92;;;2.80;;
21192;SDS011;10754;51.106;7.164;2022-07-24T08:22:11;3.42;;;3.13;;
21192;SDS011;10754;51.106;7.164;2022-07-24T08:24:37;3.00;;;2.80;;
21192;SDS011;10754;51.106;7.164;2022-07-24T08:27:04;3.95;;;2.90;;
21192;SDS011;10754;51.106;7.164;2022-07-24T08:29:30;6.25;;;3.15;;
21192;SDS011;10754;51.106;7.164;2022-07-24T08:31:55;5.18;;;3.05;;
21192;SDS011;10754;51.106;7.164;2022-07-24T08:34:21;2.75;;;2.55;;
21192;SDS011;10754;51.106;7.164;2022-07-24T08:36:46;3.08;;;2.88;;
21192;SDS011;10754;51.106;7.164;2022-07-24T08:39:12;3.53;;;3.08;;
21192;SDS011;10754;51.106;7.164;2022-07-24T08:41:38;4.32;;;3.17;;
21192;SDS011;10754;51.106;7.164;2022-07-24T08:44:04;4.15;;;3.40;;
21192;SDS011;10754;51.106;7.164;2022-07-24T08:46:30;4.25;;;3.20;;
21192;SDS011;10754;51.106;7.164;2022-07-24T08:48:57;5.22;;;3.47;;
21192;SDS011;10754;51.106;7.164;2022-07-24T08:51:23;4.43;;;2.88;;
21192;SDS011;10754;51.106;7.164;2022-07-24T08:53:58;3.63;;;3.30;;
21192;SDS011;10754;51.106;7.164;2022-07-24T08:56:24;3.10;;;2.85;;
21192;SDS011;10754;51.106;7.164;2022-07-24T08:58:51;3.53;;;3.22;;
21192;SDS011;10754;51.106;7.164;2022-07-24T09:01:16;3.10;;;2.90;;
21192;SDS011;10754;51.106;7.164;2022-07-24T09:03:42;3.90;;;3.53;;
21192;SDS011;10754;51.106;7.164;2022-07-24T09:06:10;3.60;;;3.30;;
21192;SDS011;10754;51.106;7.164;2022-07-24T09:08:40;3.55;;;3.17;;
21192;SDS011;10754;51.106;7.164;2022-07-24T09:11:06;3.90;;;3.50;;
21192;SDS011;10754;51.106;7.164;2022-07-24T09:13:34;3.67;;;3.38;;
21192;SDS011;10754;51.106;7.164;2022-07-24T09:16:20;4.82;;;3.50;;
21192;SDS011;10754;51.106;7.164;2022-07-24T09:18:48;5.07;;;3.28;;
21192;SDS011;10754;51.106;7.164;2022-07-24T09:21:15;4.75;;;3.83;;
21192;SDS011;10754;51.106;7.164;2022-07-24T09:23:42;3.50;;;3.20;;
21192;SDS011;10754;51.106;7.164;2022-07-24T09:26:09;5.75;;;3.63;;
21192;SDS011;10754;51.106;7.164;2022-07-24T09:28:48;3.65;;;3.35;;
21192;SDS011;10754;51.106;7.164;2022-07-24T09:31:15;3.90;;;3.60;;
21192;SDS011;10754;51.106;7.164;2022-07-24T09:33:41;3.85;;;3.50;;
21192;SDS011;10754;51.106;7.164;2022-07-24T09:36:10;5.75;;;3.85;;
21192;SDS011;10754;51.106;7.164;2022-07-24T09:38:38;4.47;;;4.07;;
21192;SDS011;10754;51.106;7.164;2022-07-24T09:41:11;3.78;;;3.47;;
21192;SDS011;10754;51.106;7.164;2022-07-24T09:43:37;4.30;;;3.78;;
21192;SDS011;10754;51.106;7.164;2022-07-24T09:48:35;4.32;;;3.97;;
21192;SDS011;10754;51.106;7.164;2022-07-24T09:51:08;5.43;;;3.78;;
21192;SDS011;10754;51.106;7.164;2022-07-24T09:53:37;4.82;;;3.85;;
21192;SDS011;10754;51.106;7.164;2022-07-24T09:56:04;3.97;;;3.60;;
21192;SDS011;10754;51.106;7.164;2022-07-24T09:58:31;4.40;;;4.00;;
21192;SDS011;10754;51.106;7.164;2022-07-24T10:00:59;4.10;;;3.80;;
21192;SDS011;10754;51.106;7.164;2022-07-24T10:03:27;4.93;;;3.75;;
21192;SDS011;10754;51.106;7.164;2022-07-24T10:05:54;5.13;;;3.85;;
21192;SDS011;10754;51.106;7.164;2022-07-24T10:08:22;4.25;;;3.90;;
21192;SDS011;10754;51.106;7.164;2022-07-24T10:10:48;5.78;;;3.78;;
21192;SDS011;10754;51.106;7.164;2022-07-24T10:13:15;6.50;;;3.80;;
21192;SDS011;10754;51.106;7.164;2022-07-24T10:18:52;4.78;;;4.10;;
21192;SDS011;10754;51.106;7.164;2022-07-24T10:21:21;4.85;;;3.90;;
21192;SDS011;10754;51.106;7.164;2022-07-24T10:26:45;4.32;;;3.88;;
21192;SDS011;10754;51.106;7.164;2022-07-24T10:29:20;4.53;;;4.00;;
21192;SDS011;10754;51.106;7.164;2022-07-24T10:31:48;5.55;;;4.15;;
21192;SDS011;10754;51.106;7.164;2022-07-24T10:39:51;3.33;;;3.10;;
21192;SDS011;10754;51.106;7.164;2022-07-24T10:45:29;4.03;;;3.67;;
21192;SDS011;10754;51.106;7.164;2022-07-24T10:47:56;4.68;;;3.13;;
21192;SDS011;10754;51.106;7.164;2022-07-24T10:50:21;4.00;;;3.60;;
21192;SDS011;10754;51.106;7.164;2022-07-24T10:52:47;4.88;;;3.53;;
21192;SDS011;10754;51.106;7.164;2022-07-24T10:55:22;4.30;;;3.90;;
21192;SDS011;10754;51.106;7.164;2022-07-24T10:57:57;4.13;;;3.53;;
21192;SDS011;10754;51.106;7.164;2022-07-24T11:00:31;4.65;;;3.80;;
21192;SDS011;10754;51.106;7.164;2022-07-24T11:05:29;4.70;;;3.40;;
21192;SDS011;10754;51.106;7.164;2022-07-24T11:18:39;4.10;;;3.80;;
21192;SDS011;10754;51.106;7.164;2022-07-24T11:21:06;4.00;;;3.60;;
21192;SDS011;10754;51.106;7.164;2022-07-24T11:23:32;4.10;;;3.80;;
21192;SDS011;10754;51.106;7.164;2022-07-24T11:32:03;4.25;;;3.25;;
21192;SDS011;10754;51.106;7.164;2022-07-24T11:34:29;4.40;;;3.58;;
21192;SDS011;10754;51.106;7.164;2022-07-24T11:36:56;3.10;;;2.80;;
21192;SDS011;10754;51.106;7.164;2022-07-24T11:39:30;3.53;;;3.22;;
21192;SDS011;10754;51.106;7.164;2022-07-24T11:41:59;3.28;;;2.97;;
21192;SDS011;10754;51.106;7.164;2022-07-24T11:46:57;3.95;;;3.55;;
21192;SDS011;10754;51.106;7.164;2022-07-24T11:49:39;3.83;;;3.50;;
21192;SDS011;10754;51.106;7.164;2022-07-24T11:52:06;3.42;;;3.13;;
21192;SDS011;10754;51.106;7.164;2022-07-24T11:54:32;4.22;;;3.42;;
21192;SDS011;10754;51.106;7.164;2022-07-24T11:56:57;4.45;;;4.00;;
21192;SDS011;10754;51.106;7.164;2022-07-24T11:59:23;4.05;;;3.65;;
21192;SDS011;10754;51.106;7.164;2022-07-24T12:01:50;4.22;;;3.83;;
21192;SDS011;10754;51.106;7.164;2022-07-24T12:04:19;4.05;;;3.38;;
21192;SDS011;10754;51.106;7.164;2022-07-24T12:06:46;4.65;;;3.65;;
21192;SDS011;10754;51.106;7.164;2022-07-24T12:09:12;3.45;;;3.13;;
21192;SDS011;10754;51.106;7.164;2022-07-24T12:11:38;3.58;;;3.08;;
21192;SDS011;10754;51.106;7.164;2022-07-24T12:14:16;4.53;;;3.08;;
21192;SDS011;10754;51.106;7.164;2022-07-24T12:16:44;4.72;;;3.30;;
21192;SDS011;10754;51.106;7.164;2022-07-24T12:19:17;4.63;;;3.50;;
21192;SDS011;10754;51.106;7.164;2022-07-24T12:21:45;5.95;;;3.55;;
21192;SDS011;10754;51.106;7.164;2022-07-24T12:24:12;4.15;;;3.28;;
21192;SDS011;10754;51.106;7.164;2022-07-24T12:26:48;3.80;;;3.20;;
21192;SDS011;10754;51.106;7.164;2022-07-24T12:29:18;3.65;;;3.00;;
21192;SDS011;10754;51.106;7.164;2022-07-24T12:31:44;4.05;;;2.72;;
21192;SDS011;10754;51.106;7.164;2022-07-24T12:34:09;3.13;;;2.80;;
21192;SDS011;10754;51.106;7.164;2022-07-24T12:36:35;3.60;;;2.85;;
21192;SDS011;10754;51.106;7.164;2022-07-24T12:39:02;5.72;;;3.47;;
21192;SDS011;10754;51.106;7.164;2022-07-24T12:41:30;4.20;;;3.78;;
21192;SDS011;10754;51.106;7.164;2022-07-24T12:43:57;3.10;;;2.90;;
21192;SDS011;10754;51.106;7.164;2022-07-24T12:46:28;4.18;;;3.17;;
21192;SDS011;10754;51.106;7.164;2022-07-24T12:49:06;3.45;;;3.15;;
21192;SDS011;10754;51.106;7.164;2022-07-24T12:54:21;3.72;;;3.22;;
21192;SDS011;10754;51.106;7.164;2022-07-24T12:56:51;3.63;;;3.03;;
21192;SDS011;10754;51.106;7.164;2022-07-24T12:59:31;3.88;;;3.10;;
21192;SDS011;10754;51.106;7.164;2022-07-24T13:02:06;3.90;;;3.60;;
21192;SDS011;10754;51.106;7.164;2022-07-24T13:04:39;4.28;;;3.28;;
21192;SDS011;10754;51.106;7.164;2022-07-24T13:07:07;3.60;;;2.90;;
21192;SDS011;10754;51.106;7.164;2022-07-24T13:09:33;3.95;;;3.55;;
21192;SDS011;10754;51.106;7.164;2022-07-24T13:12:00;4.32;;;3.95;;
21192;SDS011;10754;51.106;7.164;2022-07-24T13:14:25;3.10;;;2.80;;
21192;SDS011;10754;51.106;7.164;2022-07-24T13:16:53;4.22;;;3.20;;
21192;SDS011;10754;51.106;7.164;2022-07-24T13:19:20;3.22;;;2.80;;
21192;SDS011;10754;51.106;7.164;2022-07-24T13:21:46;3.47;;;3.17;;
21192;SDS011;10754;51.106;7.164;2022-07-24T13:24:12;5.60;;;3.30;;
21192;SDS011;10754;51.106;7.164;2022-07-24T13:26:40;2.67;;;2.47;;
21192;SDS011;10754;51.106;7.164;2022-07-24T13:29:07;2.92;;;2.72;;
21192;SDS011;10754;51.106;7.164;2022-07-24T13:31:33;3.03;;;2.83;;
21192;SDS011;10754;51.106;7.164;2022-07-24T13:33:59;3.25;;;2.88;;
21192;SDS011;10754;51.106;7.164;2022-07-24T13:36:25;3.03;;;2.72;;
21192;SDS011;10754;51.106;7.164;2022-07-24T13:38:51;3.35;;;2.55;;
21192;SDS011;10754;51.106;7.164;2022-07-24T13:41:16;4.70;;;2.63;;
21192;SDS011;10754;51.106;7.164;2022-07-24T13:43:43;2.85;;;2.55;;
21192;SDS011;10754;51.106;7.164;2022-07-24T13:46:10;2.63;;;2.42;;
21192;SDS011;10754;51.106;7.164;2022-07-24T13:48:35;2.88;;;2.65;;
21192;SDS011;10754;51.106;7.164;2022-07-24T13:51:01;4.45;;;3.00;;
21192;SDS011;10754;51.106;7.164;2022-07-24T13:53:27;3.05;;;2.75;;
21192;SDS011;10754;51.106;7.164;2022-07-24T13:55:52;2.80;;;2.60;;
21192;SDS011;10754;51.106;7.164;2022-07-24T13:58:18;2.75;;;2.58;;
21192;SDS011;10754;51.106;7.164;2022-07-24T14:00:43;2.75;;;2.55;;
21192;SDS011;10754;51.106;7.164;2022-07-24T14:03:09;2.70;;;2.50;;
21192;SDS011;10754;51.106;7.164;2022-07-24T14:05:34;2.88;;;2.58;;
21192;SDS011;10754;51.106;7.164;2022-07-24T14:08:00;4.38;;;2.97;;
21192;SDS011;10754;51.106;7.164;2022-07-24T14:10:25;2.60;;;2.40;;
21192;SDS011;10754;51.106;7.164;2022-07-24T14:12:52;2.80;;;2.60;;
21192;SDS011;10754;51.106;7.164;2022-07-24T14:15:18;3.45;;;2.38;;
21192;SDS011;10754;51.106;7.164;2022-07-24T14:17:43;3.17;;;2.72;;
21192;SDS011;10754;51.106;7.164;2022-07-24T14:20:10;3.28;;;2.75;;
21192;SDS011;10754;51.106;7.164;2022-07-24T14:22:37;4.15;;;2.85;;
21192;SDS011;10754;51.106;7.164;2022-07-24T14:25:04;4.13;;;2.78;;
21192;SDS011;10754;51.106;7.164;2022-07-24T14:27:31;4.43;;;2.63;;
21192;SDS011;10754;51.106;7.164;2022-07-24T14:29:57;3.78;;;2.60;;
21192;SDS011;10754;51.106;7.164;2022-07-24T14:32:23;3.88;;;2.50;;
21192;SDS011;10754;51.106;7.164;2022-07-24T14:34:49;2.42;;;2.22;;
21192;SDS011;10754;51.106;7.164;2022-07-24T14:37:16;2.80;;;2.60;;
21192;SDS011;10754;51.106;7.164;2022-07-24T14:39:41;2.90;;;2.70;;
21192;SDS011;10754;51.106;7.164;2022-07-24T14:42:07;2.53;;;2.35;;
21192;SDS011;10754;51.106;7.164;2022-07-24T14:44:33;3.03;;;2.75;;
21192;SDS011;10754;51.106;7.164;2022-07-24T14:46:59;2.90;;;2.60;;
21192;SDS011;10754;51.106;7.164;2022-07-24T14:49:25;2.85;;;2.55;;
21192;SDS011;10754;51.106;7.164;2022-07-24T14:51:54;3.03;;;2.67;;
21192;SDS011;10754;51.106;7.164;2022-07-24T14:54:19;3.13;;;2.72;;
21192;SDS011;10754;51.106;7.164;2022-07-24T14:56:45;2.90;;;2.70;;
21192;SDS011;10754;51.106;7.164;2022-07-24T14:59:10;3.22;;;2.63;;
21192;SDS011;10754;51.106;7.164;2022-07-24T15:01:36;3.08;;;2.75;;
21192;SDS011;10754;51.106;7.164;2022-07-24T15:04:02;3.65;;;2.90;;
21192;SDS011;10754;51.106;7.164;2022-07-24T15:06:27;2.90;;;2.70;;
21192;SDS011;10754;51.106;7.164;2022-07-24T15:08:54;2.80;;;2.60;;
21192;SDS011;10754;51.106;7.164;2022-07-24T15:11:19;2.72;;;2.50;;
21192;SDS011;10754;51.106;7.164;2022-07-24T15:13:49;3.15;;;2.83;;
21192;SDS011;10754;51.106;7.164;2022-07-24T15:16:14;4.00;;;2.90;;
21192;SDS011;10754;51.106;7.164;2022-07-24T15:18:40;5.50;;;2.80;;
21192;SDS011;10754;51.106;7.164;2022-07-24T15:21:05;2.83;;;2.60;;
21192;SDS011;10754;51.106;7.164;2022-07-24T15:23:31;2.92;;;2.70;;
21192;SDS011;10754;51.106;7.164;2022-07-24T15:25:57;2.80;;;2.60;;